AFL005 UACC-UNNT
Flight info
| Callsign | AFL005 |
|---|---|
| Flight time | 1h 21m |
| Altitude | 38000 |
| Route | OLGAS2B OLGAS M75 ULSET/K0883F400 M75 POBUR/K0889F410 M75 DAKIN B944 GOLIM GOLIM1P |
| Aircraft | A359/H-SDE2E3GHIJ3J4J5LM1ORWXY/LB1D1 |
Departure
| Time | 2026-04-20 13:03 |
|---|---|
| Airport | Nursultan Nazarbayev International Airport (UACC) |
Arrival
| Time | 2026-04-20 14:24 |
|---|---|
| Airport | Novosibirsk Tolmachevo Airport (UNNT) |
| Time | Latitude | Longitude | Altitude | Speed | Heading |
|---|---|---|---|---|---|
| 2026-04-20 11:30 | 51.02610 | 71.46083 | 1166 ft | 0 kts | 358° |
| 2026-04-20 12:50 | 51.02597 | 71.46084 | 1166 ft | 4 kts | 358° |
| 2026-04-20 12:50 | 51.02570 | 71.46086 | 1166 ft | 4 kts | 358° |
| 2026-04-20 12:50 | 51.02543 | 71.46087 | 1165 ft | 4 kts | 358° |
| 2026-04-20 12:50 | 51.02530 | 71.46090 | 1167 ft | 4 kts | 20° |
| 2026-04-20 12:51 | 51.02527 | 71.46115 | 1165 ft | 4 kts | 105° |
| 2026-04-20 12:51 | 51.02520 | 71.46153 | 1165 ft | 4 kts | 90° |
| 2026-04-20 12:51 | 51.02536 | 71.46173 | 1165 ft | 0 kts | 222° |
| 2026-04-20 12:55 | 51.02534 | 71.46171 | 1170 ft | 1 kts | 222° |
| 2026-04-20 12:56 | 51.02528 | 71.46161 | 1166 ft | 4 kts | 224° |
| 2026-04-20 12:56 | 51.02495 | 71.46114 | 1167 ft | 9 kts | 215° |
| 2026-04-20 12:56 | 51.02438 | 71.46112 | 1166 ft | 9 kts | 153° |
| 2026-04-20 12:56 | 51.02386 | 71.46183 | 1165 ft | 11 kts | 135° |
| 2026-04-20 12:57 | 51.02356 | 71.46291 | 1166 ft | 11 kts | 79° |
| 2026-04-20 12:57 | 51.02408 | 71.46396 | 1167 ft | 13 kts | 44° |
| 2026-04-20 12:57 | 51.02480 | 71.46508 | 1167 ft | 16 kts | 44° |
| 2026-04-20 12:57 | 51.02563 | 71.46637 | 1168 ft | 18 kts | 44° |
| 2026-04-20 12:58 | 51.02656 | 71.46783 | 1165 ft | 20 kts | 44° |
| 2026-04-20 12:58 | 51.02760 | 71.46944 | 1168 ft | 22 kts | 44° |
| 2026-04-20 12:58 | 51.02870 | 71.47116 | 1165 ft | 23 kts | 44° |
| 2026-04-20 12:58 | 51.02990 | 71.47303 | 1166 ft | 25 kts | 44° |
| 2026-04-20 12:59 | 51.03116 | 71.47500 | 1166 ft | 25 kts | 44° |
| 2026-04-20 12:59 | 51.03214 | 71.47651 | 1166 ft | 16 kts | 44° |
| 2026-04-20 12:59 | 51.03297 | 71.47780 | 1165 ft | 18 kts | 44° |
| 2026-04-20 12:59 | 51.03384 | 71.47915 | 1166 ft | 13 kts | 44° |
| 2026-04-20 13:00 | 51.03420 | 71.48005 | 1165 ft | 9 kts | 68° |
| 2026-04-20 13:00 | 51.03430 | 71.48108 | 1170 ft | 10 kts | 87° |
| 2026-04-20 13:00 | 51.03428 | 71.48230 | 1169 ft | 12 kts | 97° |
| 2026-04-20 13:00 | 51.03398 | 71.48313 | 1168 ft | 6 kts | 143° |
| 2026-04-20 13:01 | 51.03367 | 71.48326 | 1169 ft | 4 kts | 181° |
| 2026-04-20 13:01 | 51.03339 | 71.48303 | 1166 ft | 5 kts | 216° |
| 2026-04-20 13:01 | 51.03307 | 71.48256 | 1170 ft | 7 kts | 223° |
| 2026-04-20 13:01 | 51.03294 | 71.48236 | 1169 ft | 0 kts | 223° |
| 2026-04-20 13:02 | 51.03202 | 71.48098 | 1170 ft | 51 kts | 224° |
| 2026-04-20 13:02 | 51.02792 | 71.47456 | 1168 ft | 115 kts | 224° |
| 2026-04-20 13:03 | 51.02090 | 71.46363 | 1243 ft | 161 kts | 224° |
| 2026-04-20 13:03 | 51.01292 | 71.45153 | 1963 ft | 156 kts | 223° |
| 2026-04-20 13:03 | 51.00522 | 71.43941 | 2622 ft | 163 kts | 223° |
| 2026-04-20 13:03 | 50.99714 | 71.42607 | 3026 ft | 173 kts | 225° |
| 2026-04-20 13:04 | 50.98881 | 71.41153 | 3391 ft | 185 kts | 227° |
| 2026-04-20 13:04 | 50.97979 | 71.39592 | 3674 ft | 199 kts | 225° |
| 2026-04-20 13:04 | 50.96940 | 71.37969 | 3873 ft | 222 kts | 222° |
| 2026-04-20 13:04 | 50.95763 | 71.36263 | 4191 ft | 240 kts | 221° |
| 2026-04-20 13:05 | 50.94430 | 71.34573 | 4660 ft | 251 kts | 211° |
| 2026-04-20 13:05 | 50.92764 | 71.33746 | 5234 ft | 256 kts | 183° |
| 2026-04-20 13:05 | 50.91016 | 71.34341 | 5853 ft | 264 kts | 154° |
| 2026-04-20 13:05 | 50.89560 | 71.36161 | 6489 ft | 272 kts | 138° |
| 2026-04-20 13:06 | 50.88274 | 71.38401 | 7056 ft | 278 kts | 129° |
| 2026-04-20 13:06 | 50.87428 | 71.41196 | 7647 ft | 287 kts | 104° |
| 2026-04-20 13:06 | 50.87437 | 71.44358 | 8246 ft | 293 kts | 76° |
| 2026-04-20 13:06 | 50.88374 | 71.47219 | 8864 ft | 296 kts | 47° |
| 2026-04-20 13:07 | 50.89853 | 71.49417 | 9501 ft | 298 kts | 41° |
| 2026-04-20 13:07 | 50.91383 | 71.51681 | 10137 ft | 301 kts | 42° |
| 2026-04-20 13:07 | 50.92898 | 71.53996 | 10704 ft | 305 kts | 43° |
| 2026-04-20 13:07 | 50.94418 | 71.56355 | 11289 ft | 307 kts | 43° |
| 2026-04-20 13:08 | 50.95948 | 71.58749 | 11905 ft | 309 kts | 44° |
| 2026-04-20 13:08 | 50.97481 | 71.61157 | 12510 ft | 311 kts | 44° |
| 2026-04-20 13:08 | 50.99024 | 71.63587 | 13121 ft | 314 kts | 44° |
| 2026-04-20 13:08 | 51.00581 | 71.66043 | 13721 ft | 317 kts | 44° |
| 2026-04-20 13:09 | 51.02129 | 71.68491 | 14264 ft | 320 kts | 44° |
| 2026-04-20 13:09 | 51.03710 | 71.70992 | 14796 ft | 322 kts | 44° |
| 2026-04-20 13:09 | 51.05304 | 71.73518 | 15324 ft | 325 kts | 44° |
| 2026-04-20 13:09 | 51.06909 | 71.76066 | 15903 ft | 327 kts | 43° |
| 2026-04-20 13:10 | 51.08525 | 71.78630 | 16466 ft | 330 kts | 43° |
| 2026-04-20 13:10 | 51.10157 | 71.81223 | 16988 ft | 335 kts | 43° |
| 2026-04-20 13:10 | 51.11843 | 71.83881 | 17245 ft | 347 kts | 43° |
| 2026-04-20 13:10 | 51.13594 | 71.86631 | 17485 ft | 360 kts | 43° |
| 2026-04-20 13:11 | 51.15379 | 71.89441 | 17725 ft | 371 kts | 43° |
| 2026-04-20 13:11 | 51.17236 | 71.92370 | 17955 ft | 381 kts | 43° |
| 2026-04-20 13:11 | 51.19255 | 71.95176 | 18167 ft | 390 kts | 33° |
| 2026-04-20 13:11 | 51.21686 | 71.97134 | 18358 ft | 395 kts | 15° |
| 2026-04-20 13:12 | 51.24392 | 71.97835 | 18589 ft | 396 kts | 357° |
| 2026-04-20 13:12 | 51.27124 | 71.97413 | 18937 ft | 396 kts | 348° |
| 2026-04-20 13:12 | 51.29843 | 71.96683 | 19315 ft | 398 kts | 347° |
| 2026-04-20 13:12 | 51.32577 | 71.95925 | 19712 ft | 400 kts | 347° |
| 2026-04-20 13:13 | 51.35291 | 71.95181 | 20077 ft | 402 kts | 347° |
| 2026-04-20 13:13 | 51.38063 | 71.94428 | 20434 ft | 406 kts | 347° |
| 2026-04-20 13:13 | 51.40859 | 71.93672 | 20781 ft | 408 kts | 347° |
| 2026-04-20 13:13 | 51.43667 | 71.92915 | 21165 ft | 410 kts | 347° |
| 2026-04-20 13:14 | 51.46490 | 71.92154 | 21551 ft | 412 kts | 347° |
| 2026-04-20 13:14 | 51.49317 | 71.91392 | 21914 ft | 414 kts | 347° |
| 2026-04-20 13:14 | 51.52170 | 71.90622 | 22267 ft | 416 kts | 346° |
| 2026-04-20 13:14 | 51.55035 | 71.89848 | 22620 ft | 418 kts | 346° |
| 2026-04-20 13:15 | 51.57899 | 71.89074 | 23072 ft | 417 kts | 346° |
| 2026-04-20 13:15 | 51.60766 | 71.88299 | 23467 ft | 419 kts | 346° |
| 2026-04-20 13:15 | 51.63607 | 71.87527 | 23724 ft | 422 kts | 346° |
| 2026-04-20 13:15 | 51.66510 | 71.86739 | 23996 ft | 424 kts | 346° |
| 2026-04-20 13:16 | 51.69423 | 71.85948 | 24279 ft | 425 kts | 346° |
| 2026-04-20 13:16 | 51.72342 | 71.85154 | 24562 ft | 426 kts | 346° |
| 2026-04-20 13:16 | 51.75273 | 71.84355 | 24848 ft | 428 kts | 346° |
| 2026-04-20 13:16 | 51.78213 | 71.83553 | 25127 ft | 429 kts | 346° |
| 2026-04-20 13:17 | 51.81161 | 71.82748 | 25410 ft | 431 kts | 346° |
| 2026-04-20 13:17 | 51.84128 | 71.81936 | 25715 ft | 432 kts | 346° |
| 2026-04-20 13:17 | 51.87044 | 71.81138 | 25988 ft | 434 kts | 346° |
| 2026-04-20 13:17 | 51.90043 | 71.80315 | 26286 ft | 436 kts | 346° |
| 2026-04-20 13:18 | 51.93040 | 71.79492 | 26602 ft | 437 kts | 346° |
| 2026-04-20 13:18 | 51.96041 | 71.78667 | 26909 ft | 439 kts | 346° |
| 2026-04-20 13:18 | 51.99056 | 71.77837 | 27242 ft | 441 kts | 346° |
| 2026-04-20 13:18 | 52.02089 | 71.77000 | 27576 ft | 443 kts | 346° |
| 2026-04-20 13:19 | 52.05131 | 71.76178 | 27918 ft | 445 kts | 347° |
| 2026-04-20 13:19 | 52.08232 | 71.75748 | 28275 ft | 452 kts | 355° |
| 2026-04-20 13:19 | 52.11367 | 71.76106 | 28596 ft | 460 kts | 3° |
| 2026-04-20 13:19 | 52.14542 | 71.76914 | 28943 ft | 464 kts | 5° |
| 2026-04-20 13:20 | 52.17723 | 71.77902 | 29303 ft | 467 kts | 6° |
| 2026-04-20 13:20 | 52.20913 | 71.78973 | 29665 ft | 469 kts | 7° |
| 2026-04-20 13:20 | 52.24121 | 71.80071 | 30015 ft | 472 kts | 7° |
| 2026-04-20 13:20 | 52.27336 | 71.81162 | 30347 ft | 474 kts | 7° |
| 2026-04-20 13:21 | 52.28002 | 71.81386 | 30412 ft | 474 kts | 7° |
| 2026-04-20 13:21 | 52.30804 | 71.82320 | 30676 ft | 476 kts | 6° |
| 2026-04-20 13:21 | 52.34056 | 71.83390 | 30975 ft | 479 kts | 6° |
| 2026-04-20 13:22 | 52.37340 | 71.84462 | 31290 ft | 481 kts | 6° |
| 2026-04-20 13:22 | 52.40581 | 71.85514 | 31603 ft | 483 kts | 5° |
| 2026-04-20 13:22 | 52.43887 | 71.86588 | 31948 ft | 484 kts | 5° |
| 2026-04-20 13:22 | 52.47193 | 71.87664 | 32235 ft | 486 kts | 5° |
| 2026-04-20 13:23 | 52.50519 | 71.88749 | 32503 ft | 488 kts | 5° |
| 2026-04-20 13:23 | 52.53849 | 71.89836 | 32779 ft | 490 kts | 5° |
| 2026-04-20 13:23 | 52.57202 | 71.90934 | 33041 ft | 491 kts | 5° |
| 2026-04-20 13:23 | 52.60561 | 71.92036 | 33275 ft | 493 kts | 5° |
| 2026-04-20 13:24 | 52.63933 | 71.93144 | 33545 ft | 495 kts | 5° |
| 2026-04-20 13:24 | 52.67260 | 71.94224 | 33898 ft | 494 kts | 4° |
| 2026-04-20 13:24 | 52.70628 | 71.95251 | 34256 ft | 492 kts | 4° |
| 2026-04-20 13:24 | 52.73994 | 71.96238 | 34576 ft | 491 kts | 4° |
| 2026-04-20 13:25 | 52.77364 | 71.97216 | 34875 ft | 491 kts | 4° |
| 2026-04-20 13:25 | 52.80730 | 71.98195 | 35186 ft | 490 kts | 4° |
| 2026-04-20 13:25 | 52.84086 | 71.99180 | 35490 ft | 490 kts | 4° |
| 2026-04-20 13:25 | 52.87436 | 72.00172 | 35826 ft | 490 kts | 4° |
| 2026-04-20 13:26 | 52.90747 | 72.01159 | 36125 ft | 489 kts | 4° |
| 2026-04-20 13:26 | 52.94098 | 72.02163 | 36501 ft | 487 kts | 3° |
| 2026-04-20 13:26 | 52.97421 | 72.03164 | 36909 ft | 485 kts | 3° |
| 2026-04-20 13:26 | 53.00738 | 72.04162 | 37172 ft | 485 kts | 3° |
| 2026-04-20 13:27 | 53.04055 | 72.05167 | 37429 ft | 485 kts | 3° |
| 2026-04-20 13:27 | 53.07375 | 72.06171 | 37671 ft | 485 kts | 3° |
| 2026-04-20 13:27 | 53.10697 | 72.07175 | 37933 ft | 485 kts | 3° |
| 2026-04-20 13:27 | 53.14017 | 72.08181 | 38204 ft | 485 kts | 3° |
| 2026-04-20 13:28 | 53.17332 | 72.09187 | 38443 ft | 485 kts | 3° |
| 2026-04-20 13:28 | 53.20614 | 72.10184 | 38666 ft | 485 kts | 3° |
| 2026-04-20 13:28 | 53.23926 | 72.11193 | 38848 ft | 484 kts | 3° |
| 2026-04-20 13:28 | 53.27244 | 72.12207 | 39046 ft | 484 kts | 3° |
| 2026-04-20 13:29 | 53.30551 | 72.13219 | 39229 ft | 483 kts | 3° |
| 2026-04-20 13:29 | 53.33863 | 72.14233 | 39399 ft | 483 kts | 3° |
| 2026-04-20 13:29 | 53.37165 | 72.15246 | 39560 ft | 483 kts | 4° |
| 2026-04-20 13:29 | 53.40477 | 72.16263 | 39718 ft | 483 kts | 4° |
| 2026-04-20 13:30 | 53.43784 | 72.17281 | 39877 ft | 484 kts | 4° |
| 2026-04-20 13:30 | 53.47093 | 72.18299 | 40006 ft | 485 kts | 4° |
| 2026-04-20 13:30 | 53.50366 | 72.19309 | 40021 ft | 485 kts | 4° |
| 2026-04-20 13:31 | 53.56980 | 72.21357 | 40016 ft | 483 kts | 4° |
| 2026-04-20 13:31 | 53.63590 | 72.23410 | 40012 ft | 483 kts | 4° |
| 2026-04-20 13:32 | 53.70205 | 72.25525 | 40030 ft | 484 kts | 4° |
| 2026-04-20 13:32 | 53.76775 | 72.27670 | 40016 ft | 484 kts | 4° |
| 2026-04-20 13:33 | 53.83380 | 72.29829 | 40016 ft | 484 kts | 4° |
| 2026-04-20 13:33 | 53.90003 | 72.31995 | 40016 ft | 484 kts | 4° |
| 2026-04-20 13:34 | 53.96616 | 72.34161 | 40037 ft | 484 kts | 4° |
| 2026-04-20 13:34 | 54.03176 | 72.36347 | 40021 ft | 485 kts | 6° |
| 2026-04-20 13:35 | 54.09580 | 72.40291 | 40043 ft | 497 kts | 21° |
| 2026-04-20 13:35 | 54.12530 | 72.43436 | 40254 ft | 502 kts | 31° |
| 2026-04-20 13:35 | 54.15188 | 72.47328 | 40491 ft | 508 kts | 40° |
| 2026-04-20 13:35 | 54.17487 | 72.51929 | 40744 ft | 512 kts | 50° |
| 2026-04-20 13:36 | 54.19347 | 72.57133 | 40941 ft | 516 kts | 59° |
| 2026-04-20 13:36 | 54.20721 | 72.62825 | 41012 ft | 522 kts | 70° |
| 2026-04-20 13:36 | 54.21542 | 72.68810 | 41011 ft | 528 kts | 80° |
| 2026-04-20 13:37 | 54.22934 | 72.81174 | 41022 ft | 531 kts | 73° |
| 2026-04-20 13:37 | 54.24815 | 72.93410 | 41012 ft | 533 kts | 72° |
| 2026-04-20 13:38 | 54.26801 | 73.05603 | 41010 ft | 532 kts | 71° |
| 2026-04-20 13:38 | 54.28819 | 73.17798 | 41009 ft | 532 kts | 71° |
| 2026-04-20 13:39 | 54.30811 | 73.29907 | 41006 ft | 532 kts | 71° |
| 2026-04-20 13:39 | 54.32799 | 73.42120 | 41007 ft | 532 kts | 71° |
| 2026-04-20 13:40 | 54.34774 | 73.54359 | 41008 ft | 533 kts | 71° |
| 2026-04-20 13:40 | 54.36736 | 73.66610 | 41007 ft | 532 kts | 71° |
| 2026-04-20 13:41 | 54.38670 | 73.78775 | 41024 ft | 533 kts | 71° |
| 2026-04-20 13:41 | 54.40609 | 73.91025 | 41007 ft | 532 kts | 71° |
| 2026-04-20 13:42 | 54.42535 | 74.03308 | 41007 ft | 533 kts | 72° |
| 2026-04-20 13:42 | 54.45382 | 74.21658 | 41007 ft | 533 kts | 72° |
| 2026-04-20 13:43 | 54.47278 | 74.33983 | 40998 ft | 532 kts | 72° |
| 2026-04-20 13:43 | 54.49159 | 74.46298 | 41021 ft | 532 kts | 72° |
| 2026-04-20 13:44 | 54.51027 | 74.58620 | 41008 ft | 532 kts | 72° |
| 2026-04-20 13:44 | 54.52869 | 74.70863 | 41006 ft | 532 kts | 72° |
| 2026-04-20 13:45 | 54.54711 | 74.83202 | 41013 ft | 532 kts | 72° |
| 2026-04-20 13:45 | 54.56541 | 74.95554 | 41010 ft | 532 kts | 72° |
| 2026-04-20 13:46 | 54.58358 | 75.07915 | 41006 ft | 532 kts | 72° |
| 2026-04-20 13:46 | 54.60149 | 75.20192 | 41014 ft | 532 kts | 72° |
| 2026-04-20 13:47 | 54.61940 | 75.32572 | 41033 ft | 532 kts | 72° |
| 2026-04-20 13:47 | 54.63718 | 75.44959 | 41014 ft | 532 kts | 72° |
| 2026-04-20 13:48 | 54.65484 | 75.57360 | 41007 ft | 532 kts | 72° |
| 2026-04-20 13:48 | 54.67242 | 75.69788 | 41010 ft | 532 kts | 72° |
| 2026-04-20 13:49 | 54.68974 | 75.82129 | 41014 ft | 532 kts | 72° |
| 2026-04-20 13:49 | 54.70705 | 75.94566 | 41033 ft | 532 kts | 72° |
| 2026-04-20 13:50 | 54.72425 | 76.07025 | 41028 ft | 532 kts | 73° |
| 2026-04-20 13:50 | 54.74130 | 76.19475 | 41028 ft | 532 kts | 73° |
| 2026-04-20 13:51 | 54.75814 | 76.31880 | 41024 ft | 532 kts | 73° |
| 2026-04-20 13:51 | 54.77495 | 76.44366 | 41027 ft | 532 kts | 73° |
| 2026-04-20 13:52 | 54.79163 | 76.56854 | 41035 ft | 532 kts | 73° |
| 2026-04-20 13:52 | 54.80806 | 76.69264 | 41039 ft | 532 kts | 73° |
| 2026-04-20 13:53 | 54.82450 | 76.81793 | 41041 ft | 532 kts | 73° |
| 2026-04-20 13:53 | 54.84079 | 76.94315 | 41050 ft | 532 kts | 73° |
| 2026-04-20 13:54 | 54.85694 | 77.06838 | 41043 ft | 532 kts | 73° |
| 2026-04-20 13:54 | 54.87285 | 77.19278 | 41046 ft | 532 kts | 73° |
| 2026-04-20 13:55 | 54.88877 | 77.31835 | 41048 ft | 532 kts | 73° |
| 2026-04-20 13:55 | 54.90453 | 77.44388 | 41057 ft | 532 kts | 73° |
| 2026-04-20 13:56 | 54.92018 | 77.56963 | 41050 ft | 532 kts | 73° |
| 2026-04-20 13:56 | 54.93217 | 77.69683 | 41047 ft | 535 kts | 78° |
| 2026-04-20 13:57 | 54.94135 | 77.82435 | 41049 ft | 535 kts | 79° |
| 2026-04-20 13:57 | 54.95005 | 77.95309 | 41066 ft | 536 kts | 79° |
| 2026-04-20 13:58 | 54.95864 | 78.08196 | 41050 ft | 536 kts | 79° |
| 2026-04-20 13:58 | 54.96716 | 78.21078 | 41053 ft | 536 kts | 79° |
| 2026-04-20 13:59 | 54.97553 | 78.33883 | 40879 ft | 536 kts | 79° |
| 2026-04-20 13:59 | 54.97968 | 78.40316 | 40651 ft | 536 kts | 79° |
| 2026-04-20 13:59 | 54.98382 | 78.46779 | 40330 ft | 535 kts | 79° |
| 2026-04-20 14:00 | 54.98790 | 78.53218 | 39621 ft | 537 kts | 79° |
| 2026-04-20 14:00 | 54.99200 | 78.59713 | 38860 ft | 540 kts | 79° |
| 2026-04-20 14:00 | 54.99605 | 78.66187 | 38083 ft | 541 kts | 79° |
| 2026-04-20 14:00 | 55.00007 | 78.72711 | 37416 ft | 539 kts | 80° |
| 2026-04-20 14:01 | 55.00403 | 78.79197 | 36746 ft | 537 kts | 80° |
| 2026-04-20 14:01 | 55.00790 | 78.85576 | 36074 ft | 537 kts | 80° |
| 2026-04-20 14:01 | 55.01180 | 78.92048 | 35396 ft | 537 kts | 80° |
| 2026-04-20 14:01 | 55.01567 | 78.98530 | 34684 ft | 538 kts | 80° |
| 2026-04-20 14:02 | 55.01952 | 79.05034 | 33867 ft | 542 kts | 80° |
| 2026-04-20 14:02 | 55.02336 | 79.11574 | 32984 ft | 544 kts | 80° |
| 2026-04-20 14:02 | 55.02718 | 79.18138 | 32140 ft | 545 kts | 81° |
| 2026-04-20 14:02 | 55.03096 | 79.24716 | 31292 ft | 546 kts | 81° |
| 2026-04-20 14:03 | 55.03471 | 79.31318 | 30518 ft | 546 kts | 81° |
| 2026-04-20 14:03 | 55.03838 | 79.37856 | 29937 ft | 540 kts | 81° |
| 2026-04-20 14:03 | 55.04193 | 79.44272 | 29311 ft | 535 kts | 81° |
| 2026-04-20 14:03 | 55.04546 | 79.50686 | 28718 ft | 529 kts | 82° |
| 2026-04-20 14:04 | 55.04892 | 79.57039 | 28149 ft | 523 kts | 82° |
| 2026-04-20 14:04 | 55.05232 | 79.63320 | 27576 ft | 519 kts | 82° |
| 2026-04-20 14:04 | 55.05566 | 79.69562 | 27006 ft | 514 kts | 82° |
| 2026-04-20 14:04 | 55.05895 | 79.75745 | 26453 ft | 509 kts | 82° |
| 2026-04-20 14:05 | 55.06218 | 79.81860 | 25903 ft | 505 kts | 82° |
| 2026-04-20 14:05 | 55.06538 | 79.87922 | 25400 ft | 499 kts | 82° |
| 2026-04-20 14:05 | 55.06849 | 79.93918 | 24862 ft | 495 kts | 82° |
| 2026-04-20 14:05 | 55.07151 | 79.99788 | 24334 ft | 491 kts | 83° |
| 2026-04-20 14:06 | 55.07452 | 80.05705 | 23786 ft | 487 kts | 83° |
| 2026-04-20 14:06 | 55.07749 | 80.11577 | 23194 ft | 484 kts | 83° |
| 2026-04-20 14:06 | 55.08039 | 80.17399 | 22626 ft | 478 kts | 83° |
| 2026-04-20 14:06 | 55.08324 | 80.23148 | 22064 ft | 473 kts | 83° |
| 2026-04-20 14:07 | 55.08604 | 80.28838 | 21527 ft | 468 kts | 83° |
| 2026-04-20 14:07 | 55.08877 | 80.34450 | 20973 ft | 463 kts | 83° |
| 2026-04-20 14:07 | 55.09146 | 80.40029 | 20438 ft | 458 kts | 83° |
| 2026-04-20 14:07 | 55.09406 | 80.45479 | 19895 ft | 454 kts | 83° |
| 2026-04-20 14:08 | 55.09665 | 80.50948 | 19348 ft | 450 kts | 83° |
| 2026-04-20 14:08 | 55.09918 | 80.56365 | 18805 ft | 447 kts | 83° |
| 2026-04-20 14:08 | 55.10169 | 80.61764 | 18226 ft | 443 kts | 83° |
| 2026-04-20 14:08 | 55.10414 | 80.67094 | 17658 ft | 439 kts | 83° |
| 2026-04-20 14:09 | 55.10654 | 80.72377 | 17095 ft | 434 kts | 83° |
| 2026-04-20 14:09 | 55.10810 | 80.75840 | 16746 ft | 431 kts | 83° |
| 2026-04-20 14:09 | 55.11043 | 80.81027 | 16212 ft | 427 kts | 84° |
| 2026-04-20 14:09 | 55.11272 | 80.86183 | 15677 ft | 423 kts | 84° |
| 2026-04-20 14:10 | 55.11495 | 80.91281 | 15150 ft | 419 kts | 84° |
| 2026-04-20 14:10 | 55.11440 | 80.96343 | 14639 ft | 417 kts | 99° |
| 2026-04-20 14:10 | 55.10204 | 81.02627 | 13966 ft | 412 kts | 115° |
| 2026-04-20 14:10 | 55.08999 | 81.07138 | 13411 ft | 408 kts | 116° |
| 2026-04-20 14:11 | 55.08203 | 81.10080 | 13055 ft | 405 kts | 117° |
| 2026-04-20 14:11 | 55.07009 | 81.14511 | 12554 ft | 400 kts | 117° |
| 2026-04-20 14:11 | 55.05838 | 81.18878 | 12020 ft | 397 kts | 117° |
| 2026-04-20 14:11 | 55.04676 | 81.23221 | 11526 ft | 393 kts | 117° |
| 2026-04-20 14:12 | 55.03528 | 81.27512 | 10998 ft | 389 kts | 117° |
| 2026-04-20 14:12 | 55.02395 | 81.31747 | 10722 ft | 378 kts | 117° |
| 2026-04-20 14:12 | 55.01308 | 81.35815 | 10582 ft | 363 kts | 118° |
| 2026-04-20 14:12 | 55.00263 | 81.39714 | 10453 ft | 349 kts | 118° |
| 2026-04-20 14:13 | 54.99253 | 81.43476 | 10317 ft | 335 kts | 118° |
| 2026-04-20 14:13 | 54.98297 | 81.47033 | 10190 ft | 323 kts | 118° |
| 2026-04-20 14:13 | 54.97355 | 81.50526 | 9931 ft | 316 kts | 118° |
| 2026-04-20 14:13 | 54.96425 | 81.53966 | 9586 ft | 312 kts | 119° |
| 2026-04-20 14:14 | 54.95505 | 81.57363 | 9284 ft | 309 kts | 119° |
| 2026-04-20 14:14 | 54.94589 | 81.60741 | 8976 ft | 308 kts | 119° |
| 2026-04-20 14:14 | 54.93679 | 81.64098 | 8677 ft | 307 kts | 119° |
| 2026-04-20 14:14 | 54.92836 | 81.67494 | 8357 ft | 307 kts | 110° |
| 2026-04-20 14:15 | 54.92547 | 81.71185 | 8059 ft | 309 kts | 91° |
| 2026-04-20 14:15 | 54.92574 | 81.74858 | 7761 ft | 307 kts | 89° |
| 2026-04-20 14:15 | 54.92634 | 81.78563 | 7453 ft | 306 kts | 89° |
| 2026-04-20 14:15 | 54.92688 | 81.82240 | 7176 ft | 304 kts | 89° |
| 2026-04-20 14:16 | 54.92735 | 81.85854 | 7041 ft | 294 kts | 89° |
| 2026-04-20 14:16 | 54.92776 | 81.89401 | 6661 ft | 293 kts | 90° |
| 2026-04-20 14:16 | 54.92810 | 81.92928 | 6320 ft | 290 kts | 90° |
| 2026-04-20 14:16 | 54.92870 | 81.96412 | 6009 ft | 286 kts | 85° |
| 2026-04-20 14:17 | 54.93244 | 81.99788 | 5735 ft | 283 kts | 75° |
| 2026-04-20 14:17 | 54.93752 | 82.03039 | 5446 ft | 281 kts | 73° |
| 2026-04-20 14:17 | 54.94275 | 82.06294 | 5156 ft | 279 kts | 73° |
| 2026-04-20 14:17 | 54.94793 | 82.09534 | 4860 ft | 277 kts | 73° |
| 2026-04-20 14:18 | 54.95303 | 82.12753 | 4570 ft | 275 kts | 73° |
| 2026-04-20 14:18 | 54.95806 | 82.15950 | 4287 ft | 273 kts | 73° |
| 2026-04-20 14:18 | 54.96304 | 82.19129 | 4006 ft | 272 kts | 73° |
| 2026-04-20 14:18 | 54.96797 | 82.22285 | 3720 ft | 270 kts | 73° |
| 2026-04-20 14:19 | 54.97287 | 82.25425 | 3443 ft | 268 kts | 73° |
| 2026-04-20 14:19 | 54.97759 | 82.28465 | 3302 ft | 257 kts | 73° |
| 2026-04-20 14:19 | 54.98144 | 82.31431 | 3207 ft | 245 kts | 78° |
| 2026-04-20 14:19 | 54.98423 | 82.34275 | 3115 ft | 232 kts | 80° |
| 2026-04-20 14:20 | 54.98677 | 82.36971 | 3020 ft | 220 kts | 81° |
| 2026-04-20 14:20 | 54.98917 | 82.39532 | 2924 ft | 209 kts | 82° |
| 2026-04-20 14:20 | 54.99145 | 82.41948 | 2793 ft | 198 kts | 83° |
| 2026-04-20 14:20 | 54.99354 | 82.44301 | 2509 ft | 194 kts | 83° |
| 2026-04-20 14:21 | 54.99560 | 82.46548 | 2241 ft | 182 kts | 84° |
| 2026-04-20 14:21 | 54.99750 | 82.48627 | 2005 ft | 170 kts | 84° |
| 2026-04-20 14:21 | 54.99927 | 82.50579 | 1773 ft | 158 kts | 84° |
| 2026-04-20 14:21 | 55.00091 | 82.52398 | 1552 ft | 147 kts | 84° |
| 2026-04-20 14:22 | 55.00245 | 82.54100 | 1337 ft | 138 kts | 84° |
| 2026-04-20 14:22 | 55.00376 | 82.55708 | 1157 ft | 133 kts | 83° |
| 2026-04-20 14:22 | 55.00530 | 82.57292 | 1001 ft | 133 kts | 81° |
| 2026-04-20 14:22 | 55.00679 | 82.58870 | 799 ft | 131 kts | 81° |
| 2026-04-20 14:23 | 55.00826 | 82.60440 | 624 ft | 131 kts | 80° |
| 2026-04-20 14:23 | 55.00971 | 82.62008 | 462 ft | 133 kts | 80° |
| 2026-04-20 14:23 | 55.01108 | 82.63578 | 381 ft | 128 kts | 82° |
| 2026-04-20 14:23 | 55.01229 | 82.64896 | 378 ft | 93 kts | 81° |
| 2026-04-20 14:24 | 55.01309 | 82.65795 | 378 ft | 58 kts | 81° |
| 2026-04-20 14:24 | 55.01359 | 82.66336 | 380 ft | 40 kts | 81° |
| 2026-04-20 14:24 | 55.01402 | 82.66797 | 381 ft | 37 kts | 81° |
| 2026-04-20 14:24 | 55.01441 | 82.67231 | 379 ft | 36 kts | 81° |
| 2026-04-20 14:25 | 55.01476 | 82.67607 | 377 ft | 20 kts | 81° |
| 2026-04-20 14:25 | 55.01468 | 82.67747 | 378 ft | 8 kts | 131° |
| 2026-04-20 14:25 | 55.01419 | 82.67761 | 378 ft | 8 kts | 193° |
| 2026-04-20 14:25 | 55.01364 | 82.67714 | 379 ft | 10 kts | 208° |
| 2026-04-20 14:26 | 55.01300 | 82.67648 | 379 ft | 9 kts | 211° |
| 2026-04-20 14:26 | 55.01293 | 82.67641 | 379 ft | 0 kts | 211° |
| 2026-04-20 14:27 | 55.01279 | 82.67626 | 379 ft | 6 kts | 211° |
| 2026-04-20 14:27 | 55.01212 | 82.67556 | 379 ft | 15 kts | 211° |
| 2026-04-20 14:28 | 55.01139 | 82.67480 | 379 ft | 5 kts | 215° |
| 2026-04-20 14:28 | 55.01114 | 82.67421 | 379 ft | 7 kts | 249° |
| 2026-04-20 14:28 | 55.01108 | 82.67338 | 379 ft | 7 kts | 270° |
| 2026-04-20 14:28 | 55.01107 | 82.67287 | 379 ft | 0 kts | 265° |
| 2026-04-20 14:33 | 55.01107 | 82.67285 | 379 ft | 5 kts | 265° |
| 2026-04-20 14:33 | 55.01107 | 82.67360 | 379 ft | 7 kts | 277° |
| 2026-04-20 14:34 | 55.01123 | 82.67337 | 379 ft | 6 kts | 316° |